createdAt,value
2018-06-18T00:02:43.478Z,101491.86
2018-06-18T00:07:46.605Z,101495.66
2018-06-18T00:12:48.752Z,101497.72
2018-06-18T00:17:50.874Z,101502.84
2018-06-18T00:22:53.003Z,101499.05
2018-06-18T00:27:55.131Z,101506.09
2018-06-18T00:32:57.952Z,101503.11
2018-06-18T00:38:00.056Z,101498.27
2018-06-18T00:43:02.496Z,101501.20
2018-06-18T00:48:04.684Z,101507.58
2018-06-18T00:53:06.804Z,101509.31
2018-06-18T00:58:08.919Z,101500.80
2018-06-18T01:03:11.207Z,101501.54
2018-06-18T01:08:13.334Z,101504.98
2018-06-18T01:13:15.518Z,101504.22
2018-06-18T01:18:17.684Z,101490.58
2018-06-18T01:23:44.286Z,101483.48
2018-06-18T01:28:46.450Z,101469.66
2018-06-18T01:33:49.357Z,101469.50
2018-06-18T01:38:51.483Z,101471.43
2018-06-18T01:43:53.607Z,101463.78
2018-06-18T01:48:55.742Z,101471.36
2018-06-18T01:53:57.889Z,101477.20
2018-06-18T01:59:00.031Z,101486.84
2018-06-18T02:04:02.275Z,101492.69
2018-06-18T02:09:07.435Z,101485.17
2018-06-18T02:14:10.484Z,101487.06
2018-06-18T02:19:12.603Z,101486.91
2018-06-18T02:24:14.724Z,101480.31
2018-06-18T02:29:22.570Z,101490.14
2018-06-18T02:34:30.457Z,101492.50
2018-06-18T02:39:37.179Z,101486.31
2018-06-18T02:44:39.304Z,101495.55
2018-06-18T02:49:41.446Z,101488.17
2018-06-18T02:54:43.581Z,101501.21
2018-06-18T02:59:45.731Z,101499.27
2018-06-18T03:04:47.847Z,101495.48
2018-06-18T03:09:49.956Z,101494.95
2018-06-18T03:14:52.133Z,101490.89
2018-06-18T03:19:59.910Z,101498.02
2018-06-18T03:25:07.830Z,101497.41
2018-06-18T03:30:10.005Z,101509.18
2018-06-18T03:35:12.140Z,101511.63
2018-06-18T03:40:14.267Z,101520.20
2018-06-18T03:45:28.876Z,101517.68
2018-06-18T03:50:31.013Z,101512.92
2018-06-18T03:55:39.252Z,101508.84
2018-06-18T04:00:58.879Z,101506.38
2018-06-18T04:06:06.810Z,101498.23
2018-06-18T04:11:14.520Z,101496.92
2018-06-18T04:16:16.678Z,101499.80
2018-06-18T04:21:18.827Z,101505.06
2018-06-18T04:26:20.960Z,101503.29
2018-06-18T04:31:23.131Z,101504.33
2018-06-18T04:36:25.263Z,101504.77
2018-06-18T04:41:27.396Z,101506.03
2018-06-18T04:46:35.232Z,101517.39
2018-06-18T04:51:37.358Z,101508.25
2018-06-18T04:56:39.517Z,101500.42
2018-06-18T05:01:41.610Z,101490.20
2018-06-18T05:06:43.748Z,101471.18
2018-06-18T05:11:45.847Z,101467.33
2018-06-18T05:16:48.099Z,101471.73
2018-06-18T05:21:50.237Z,101477.15
2018-06-18T05:26:53.928Z,101473.88
2018-06-18T05:31:56.048Z,101495.14
2018-06-18T05:37:00.541Z,101488.71
2018-06-18T05:42:02.689Z,101495.88
2018-06-18T05:47:05.006Z,101499.42
2018-06-18T05:52:07.139Z,101484.16
2018-06-18T05:57:09.277Z,101491.28
2018-06-18T06:02:11.418Z,101496.78
2018-06-18T06:07:13.555Z,101496.80
2018-06-18T06:12:15.690Z,101495.91
2018-06-18T06:17:17.879Z,101488.38
2018-06-18T06:22:20.062Z,101491.02
2018-06-18T06:27:23.072Z,101490.94
2018-06-18T06:32:25.248Z,101485.38
2018-06-18T06:37:27.454Z,101483.97
2018-06-18T06:42:29.585Z,101498.53
2018-06-18T06:47:31.743Z,101498.13
2018-06-18T06:52:33.885Z,101487.53
2018-06-18T06:57:36.032Z,101483.29
2018-06-18T07:02:38.177Z,101483.42
2018-06-18T07:07:40.319Z,101481.53
2018-06-18T07:12:42.480Z,101485.70
2018-06-18T07:17:44.743Z,101481.42
2018-06-18T07:22:47.414Z,101482.02
2018-06-18T07:27:49.645Z,101483.57
2018-06-18T07:32:52.320Z,101487.53
2018-06-18T07:37:54.468Z,101490.16
2018-06-18T07:42:56.607Z,101490.84
2018-06-18T07:47:58.790Z,101488.16
2018-06-18T07:53:00.955Z,101488.25
2018-06-18T07:58:03.142Z,101476.88
2018-06-18T08:03:05.526Z,101468.02
2018-06-18T08:08:07.683Z,101464.67
2018-06-18T08:13:09.942Z,101462.87
2018-06-18T08:18:12.111Z,101468.64
2018-06-18T08:23:14.228Z,101477.22
2018-06-18T08:28:16.707Z,101473.19
2018-06-18T08:33:18.973Z,101468.95
2018-06-18T08:38:21.382Z,101469.91
2018-06-18T08:43:23.657Z,101472.55
2018-06-18T08:48:31.566Z,101475.02
2018-06-18T08:53:39.487Z,101469.48
2018-06-18T08:58:47.366Z,101470.89
2018-06-18T09:03:51.817Z,101461.91
2018-06-18T09:08:55.483Z,101472.53
2018-06-18T09:14:04.544Z,101456.20
2018-06-18T09:19:06.788Z,101465.20
2018-06-18T09:24:08.984Z,101462.21
2018-06-18T09:29:11.156Z,101461.05
2018-06-18T09:34:13.531Z,101466.71
2018-06-18T09:39:15.664Z,101461.83
2018-06-18T09:44:17.924Z,101466.94
2018-06-18T09:49:25.818Z,101462.72
2018-06-18T09:54:42.329Z,101470.98
2018-06-18T09:59:50.400Z,101380.48
2018-06-18T10:04:52.567Z,101477.13
2018-06-18T10:09:55.242Z,101483.61
2018-06-18T10:14:57.350Z,101477.52
2018-06-18T10:20:01.583Z,101478.48
2018-06-18T10:25:03.964Z,101491.27
2018-06-18T10:30:06.194Z,101514.40
2018-06-18T10:35:14.124Z,101517.40
2018-06-18T10:41:20.347Z,101512.45
2018-06-18T10:46:22.754Z,101504.83
2018-06-18T10:51:24.912Z,101510.94
2018-06-18T10:56:27.095Z,101507.85
2018-06-18T11:01:30.880Z,101503.86
2018-06-18T11:06:37.276Z,101502.82
2018-06-18T11:11:39.458Z,101498.08
2018-06-18T11:16:41.801Z,101482.66
2018-06-18T11:21:49.582Z,101484.83
2018-06-18T11:26:54.656Z,101482.08
2018-06-18T11:31:57.120Z,101484.48
2018-06-18T11:36:59.548Z,101470.02
2018-06-18T11:42:01.716Z,101474.63
2018-06-18T11:47:03.927Z,101451.84
2018-06-18T11:52:06.564Z,101450.48
2018-06-18T11:57:08.752Z,101459.77
2018-06-18T12:02:16.542Z,101467.17
2018-06-18T12:07:24.355Z,101489.89
2018-06-18T12:12:26.432Z,101503.25
2018-06-18T12:17:28.576Z,101488.01
2018-06-18T12:22:30.770Z,101484.36
2018-06-18T12:27:34.035Z,101482.88
2018-06-18T12:32:36.238Z,101482.32
2018-06-18T12:37:38.495Z,101494.09
2018-06-18T12:42:40.692Z,101492.64
2018-06-18T12:47:48.633Z,101502.57
2018-06-18T12:52:56.615Z,101502.41
2018-06-18T12:57:58.803Z,101485.73
2018-06-18T13:03:10.118Z,101498.77
2018-06-18T13:08:12.311Z,101488.38
2018-06-18T13:13:14.508Z,101479.06
2018-06-18T13:18:16.716Z,101485.44
2018-06-18T13:23:18.899Z,101491.54
2018-06-18T13:28:21.088Z,101488.11
2018-06-18T13:33:23.316Z,101489.09
2018-06-18T13:38:31.234Z,101486.57
2018-06-18T13:43:39.167Z,101497.42
2018-06-18T13:48:46.402Z,101489.28
2018-06-18T13:53:48.541Z,101484.64
2018-06-18T13:58:51.363Z,101485.44
2018-06-18T14:03:53.539Z,101489.27
2018-06-18T14:08:55.701Z,101481.59
2018-06-18T14:13:58.247Z,101505.31
2018-06-18T14:19:05.035Z,101494.98
2018-06-18T14:24:07.232Z,101488.52
2018-06-18T14:29:13.973Z,101482.05
2018-06-18T14:34:21.803Z,101477.30
2018-06-18T14:39:29.724Z,101467.98
2018-06-18T14:44:32.020Z,101477.03
2018-06-18T14:49:34.162Z,101466.48
2018-06-18T14:54:36.339Z,101456.66
2018-06-18T14:59:46.141Z,101450.49
2018-06-18T15:04:48.322Z,101444.75
2018-06-18T15:09:50.527Z,101437.17
2018-06-18T15:14:58.317Z,101434.69
2018-06-18T15:20:00.540Z,101434.05
2018-06-18T15:25:05.785Z,101437.66
2018-06-18T15:30:07.935Z,101432.95
2018-06-18T15:35:10.083Z,101432.56
2018-06-18T15:40:12.272Z,101434.13
2018-06-18T15:45:14.779Z,101429.05
2018-06-18T15:50:16.974Z,101429.49
2018-06-18T15:55:19.767Z,101430.31
2018-06-18T16:00:21.926Z,101441.91
2018-06-18T16:05:24.079Z,101433.59
2018-06-18T16:10:26.222Z,101429.34
2018-06-18T16:15:28.415Z,101426.28
2018-06-18T16:20:30.605Z,101419.48
2018-06-18T16:25:32.834Z,101434.56
2018-06-18T16:30:35.023Z,101427.14
2018-06-18T16:35:37.189Z,101422.04
2018-06-18T16:40:39.428Z,101419.32
2018-06-18T16:45:41.626Z,101419.97
2018-06-18T16:50:43.824Z,101412.45
2018-06-18T16:55:46.065Z,101422.03
2018-06-18T17:00:48.295Z,101421.06
2018-06-18T17:05:50.519Z,101419.98
2018-06-18T17:10:52.698Z,101425.81
2018-06-18T17:15:54.932Z,101424.50
2018-06-18T17:20:57.124Z,101419.52
2018-06-18T17:25:59.404Z,101425.70
2018-06-18T17:31:01.673Z,101417.41
2018-06-18T17:36:03.917Z,101413.66
2018-06-18T17:41:06.203Z,101412.22
2018-06-18T17:46:10.299Z,101415.53
2018-06-18T17:51:13.504Z,101419.66
2018-06-18T17:56:15.789Z,101417.59
2018-06-18T18:01:18.461Z,101414.09
2018-06-18T18:06:22.022Z,101422.25
2018-06-18T18:11:26.508Z,101413.59
2018-06-18T18:16:30.023Z,101411.03
2018-06-18T18:21:32.936Z,101402.95
2018-06-18T18:26:35.320Z,101402.91
2018-06-18T18:31:37.552Z,101402.52
2018-06-18T18:36:39.768Z,101404.27
2018-06-18T18:41:42.679Z,101409.87
2018-06-18T18:46:44.884Z,101405.81
2018-06-18T18:51:48.034Z,101413.33
2018-06-18T18:57:01.644Z,101413.13
2018-06-18T19:02:03.873Z,101423.61
2018-06-18T19:07:06.524Z,101419.36
2018-06-18T19:12:08.733Z,101426.23
2018-06-18T19:17:10.961Z,101429.56
2018-06-18T19:22:13.325Z,101424.33
2018-06-18T19:27:15.568Z,101423.98
2018-06-18T19:32:17.856Z,101418.84
2018-06-18T19:37:20.179Z,101424.23
2018-06-18T19:42:23.264Z,101417.59
2018-06-18T19:47:43.794Z,101411.73
2018-06-18T19:52:46.045Z,101406.53
2018-06-18T19:57:48.235Z,101408.09
2018-06-18T20:02:50.414Z,101411.39
2018-06-18T20:07:57.591Z,101424.79
2018-06-18T20:12:59.825Z,101422.02
2018-06-18T20:18:02.052Z,101430.66
2018-06-18T20:23:06.471Z,101442.45
2018-06-18T20:28:08.700Z,101442.84
2018-06-18T20:33:12.309Z,101448.33
2018-06-18T20:38:14.534Z,101431.23
2018-06-18T20:43:16.994Z,101418.96
2018-06-18T20:48:19.266Z,101446.42
2018-06-18T20:53:21.478Z,101445.75
2018-06-18T20:58:23.664Z,101457.30
2018-06-18T21:03:25.847Z,101458.58
2018-06-18T21:08:28.036Z,101452.55
2018-06-18T21:13:30.191Z,101465.40
2018-06-18T21:18:32.380Z,101471.89
2018-06-18T21:23:34.555Z,101465.80
2018-06-18T21:28:36.764Z,101465.66
2018-06-18T21:33:39.048Z,101463.70
2018-06-18T21:38:41.207Z,101456.70
2018-06-18T21:43:43.539Z,101465.41
2018-06-18T21:48:45.673Z,101463.52
2018-06-18T21:53:47.843Z,101458.05
2018-06-18T21:58:50.027Z,101445.82
2018-06-18T22:03:52.168Z,101448.30
2018-06-18T22:08:54.345Z,101452.69
2018-06-18T22:13:56.510Z,101458.69
2018-06-18T22:18:58.695Z,101466.30
2018-06-18T22:24:01.593Z,101455.27
2018-06-18T22:29:04.817Z,101455.27
2018-06-18T22:34:07.613Z,101460.55
2018-06-18T22:39:11.519Z,101456.19
2018-06-18T22:44:14.009Z,101464.48
2018-06-18T22:49:16.387Z,101454.16
2018-06-18T22:54:18.874Z,101445.42
2018-06-18T22:59:21.360Z,101452.53
2018-06-18T23:04:23.950Z,101451.14
2018-06-18T23:09:26.842Z,101448.59
2018-06-18T23:14:29.335Z,101455.15
2018-06-18T23:19:31.780Z,101459.23
2018-06-18T23:24:34.534Z,101461.72
2018-06-18T23:29:39.194Z,101456.68
2018-06-18T23:34:41.973Z,101456.42
2018-06-18T23:39:44.444Z,101450.74
2018-06-18T23:44:46.922Z,101450.02
2018-06-18T23:49:49.413Z,101456.30
2018-06-18T23:54:52.524Z,101451.41
2018-06-18T23:59:58.274Z,101448.25
